Time;durP1;ratioP1;P1;durP2;ratioP2;P2;SDS_P1;SDS_P2;PMS_P1;PMS_P2;Temp;Humidity;BMP_temperature;BMP_pressure;BME280_temperature;BME280_humidity;BME280_pressure;Samples;Min_cycle;Max_cycle;Signal;HPM_P1;HPM_P2
2021/11/17 02:27:48;;;;;;;9.05;5.22;;;;;;;5.29;100.00;95578.44;5107423;27;20039;-67
2021/11/17 02:30:27;;;;;;;7.70;3.88;;;;;;;5.31;100.00;95576.47;5110906;27;20731;-68
2021/11/17 02:33:25;;;;;;;8.95;4.68;;;;;;;5.33;100.00;95574.53;5117249;27;20036;-68
2021/11/17 02:36:14;;;;;;;7.80;4.75;;;;;;;5.25;100.00;95572.03;5108840;27;20035;-68
2021/11/17 02:38:46;;;;;;;7.00;3.70;;;;;;;5.25;100.00;95580.59;5106878;27;20047;-67
2021/11/17 02:41:42;;;;;;;6.47;3.58;;;;;;;5.24;100.00;95575.59;5115487;27;20717;-67
2021/11/17 02:44:33;;;;;;;6.93;3.30;;;;;;;5.21;100.00;95581.13;5090564;28;20035;-68
2021/11/17 02:47:18;;;;;;;7.05;3.45;;;;;;;5.22;100.00;95580.16;5106214;28;20104;-68
2021/11/17 02:50:30;;;;;;;6.63;3.55;;;;;;;5.16;100.00;95589.41;5106670;27;20047;-67
2021/11/17 02:53:33;;;;;;;5.70;3.05;;;;;;;5.08;100.00;95587.72;5107553;27;20044;-67
2021/11/17 02:56:06;;;;;;;9.40;4.57;;;;;;;5.01;100.00;95586.84;5112387;27;20062;-68
2021/11/17 02:58:43;;;;;;;9.05;4.50;;;;;;;5.03;100.00;95587.44;5095170;27;22351;-68
2021/11/17 03:01:34;;;;;;;10.35;5.55;;;;;;;5.03;100.00;95584.88;5109136;27;20055;-68
2021/11/17 03:04:19;;;;;;;12.20;4.93;;;;;;;5.02;100.00;95583.25;5089109;28;20046;-68
2021/11/17 03:07:01;;;;;;;13.77;6.25;;;;;;;4.96;100.00;95579.59;5106206;28;20050;-69
2021/11/17 03:09:37;;;;;;;14.93;6.15;;;;;;;4.98;100.00;95587.19;5108098;27;20050;-68
2021/11/17 03:12:10;;;;;;;18.00;8.25;;;;;;;4.92;100.00;95582.72;5104714;27;20036;-69
2021/11/17 03:14:57;;;;;;;15.68;7.00;;;;;;;4.93;100.00;95585.13;5112020;27;20068;-70
2021/11/17 03:17:48;;;;;;;15.07;6.97;;;;;;;4.90;100.00;95589.84;5107308;27;20100;-69
2021/11/17 03:20:30;;;;;;;16.10;8.13;;;;;;;4.94;100.00;95585.94;5107499;27;20054;-68
2021/11/17 03:23:15;;;;;;;14.43;6.70;;;;;;;5.01;100.00;95576.50;5105945;27;20040;-69
2021/11/17 03:26:14;;;;;;;15.10;7.57;;;;;;;5.06;100.00;95579.34;5109889;27;20035;-69
2021/11/17 03:29:14;;;;;;;19.98;7.32;;;;;;;5.04;100.00;95581.31;5074973;27;20047;-69
2021/11/17 03:31:57;;;;;;;14.48;7.07;;;;;;;5.03;100.00;95579.69;5105926;27;20054;-69
2021/11/17 03:34:24;;;;;;;16.15;6.68;;;;;;;5.01;100.00;95576.50;5106496;27;20154;-69
2021/11/17 03:36:50;;;;;;;13.38;6.05;;;;;;;5.07;100.00;95580.94;5111582;27;20035;-69
2021/11/17 03:39:17;;;;;;;12.75;7.03;;;;;;;5.10;100.00;95580.59;5107255;27;20050;-69
2021/11/17 03:41:53;;;;;;;9.35;4.93;;;;;;;5.09;100.00;95571.22;5110145;27;20048;-69
2021/11/17 03:44:30;;;;;;;13.75;5.80;;;;;;;5.07;100.00;95574.97;5106393;27;20031;-69
2021/11/17 03:47:09;;;;;;;9.38;4.90;;;;;;;5.02;100.00;95561.81;5105658;28;20043;-69
2021/11/17 03:50:13;;;;;;;13.73;5.78;;;;;;;5.03;100.00;95566.78;5107966;27;20420;-69
2021/11/17 03:53:15;;;;;;;7.65;3.65;;;;;;;4.95;100.00;95566.88;5104035;28;20466;-68
2021/11/17 03:55:47;;;;;;;9.50;4.75;;;;;;;4.89;100.00;95562.44;5095316;27;20040;-68
2021/11/17 03:58:26;;;;;;;11.23;5.30;;;;;;;4.90;100.00;95569.19;5103140;28;20035;-68
2021/11/17 04:00:53;;;;;;;13.25;4.43;;;;;;;4.84;100.00;95569.91;5104532;28;20055;-68
2021/11/17 04:03:48;;;;;;;14.60;6.25;;;;;;;4.83;100.00;95563.16;5106418;27;20529;-68
2021/11/17 04:06:50;;;;;;;14.18;6.00;;;;;;;4.83;100.00;95563.16;5072107;28;20048;-68
2021/11/17 04:09:44;;;;;;;17.23;6.35;;;;;;;4.81;100.00;95567.66;5080160;28;20055;-68
2021/11/17 04:12:23;;;;;;;16.92;6.57;;;;;;;4.82;100.00;95564.13;5103639;28;20035;-69
2021/11/17 04:15:11;;;;;;;23.70;7.57;;;;;;;4.74;100.00;95560.63;5110368;27;20532;-68
2021/11/17 04:17:54;;;;;;;16.80;6.80;;;;;;;4.68;100.00;95561.34;5108986;27;20416;-69
2021/11/17 04:20:43;;;;;;;19.30;7.75;;;;;;;4.67;100.00;95564.91;5111844;27;20453;-68
2021/11/17 04:23:32;;;;;;;18.38;6.22;;;;;;;4.66;100.00;95568.44;5106325;27;20557;-68
2021/11/17 04:26:08;;;;;;;14.88;7.28;;;;;;;4.65;100.00;95561.69;5102925;28;20112;-69
2021/11/17 04:28:56;;;;;;;11.30;6.05;;;;;;;4.65;100.00;95572.00;5111843;27;20058;-69
2021/11/17 04:31:42;;;;;;;13.27;5.35;;;;;;;4.64;100.00;95565.22;5107924;27;20055;-68
2021/11/17 04:34:14;;;;;;;16.50;5.78;;;;;;;4.63;100.00;95568.81;5105324;28;20040;-68
2021/11/17 04:36:47;;;;;;;10.25;5.72;;;;;;;4.63;100.00;95573.97;5103101;28;20040;-68
2021/11/17 04:39:40;;;;;;;12.50;6.22;;;;;;;4.65;100.00;95571.22;5114559;27;20048;-68
2021/11/17 04:42:26;;;;;;;14.45;6.32;;;;;;;4.69;100.00;95583.56;5106132;27;20043;-68
2021/11/17 04:44:58;;;;;;;12.35;5.47;;;;;;;4.62;100.00;95572.34;5103770;27;20028;-68
2021/11/17 04:47:43;;;;;;;14.60;7.13;;;;;;;4.67;100.00;95577.78;5109521;27;20469;-68
2021/11/17 04:50:12;;;;;;;;;;;;;;;4.66;100.00;95576.19;5104246;28;20039;-68
2021/11/17 04:52:45;;;;;;;6.90;4.28;;;;;;;4.56;100.00;95560.97;5107971;27;19927;-68
2021/11/17 04:55:43;;;;;;;8.60;4.90;;;;;;;4.65;100.00;95569.44;5093574;28;20488;-68
2021/11/17 04:58:13;;;;;;;11.98;6.03;;;;;;;4.66;100.00;95573.59;5102614;28;20451;-68
2021/11/17 05:01:01;;;;;;;13.18;6.60;;;;;;;4.67;100.00;95574.41;5104149;27;20043;-68
2021/11/17 05:03:50;;;;;;;11.75;5.65;;;;;;;4.68;100.00;95570.84;5107217;27;20043;-68
2021/11/17 05:06:35;;;;;;;11.13;5.53;;;;;;;4.65;100.00;95572.00;5109096;27;20043;-68
2021/11/17 05:09:10;;;;;;;17.30;6.88;;;;;;;4.62;100.00;95582.69;5104234;27;20051;-68
2021/11/17 05:12:02;;;;;;;15.70;7.45;;;;;;;4.67;100.00;95585.53;5108278;27;20469;-68
2021/11/17 05:14:29;;;;;;;16.67;7.78;;;;;;;4.65;100.00;95587.50;5085004;28;20048;-68
2021/11/17 05:17:11;;;;;;;13.95;5.78;;;;;;;4.66;100.00;95589.09;5108212;27;20044;-68
2021/11/17 05:19:59;;;;;;;17.52;7.70;;;;;;;4.69;100.00;95588.75;5112188;27;20416;-68
2021/11/17 05:22:33;;;;;;;17.75;7.75;;;;;;;4.69;100.00;95588.75;5085103;28;20610;-68
2021/11/17 05:25:00;;;;;;;15.30;7.25;;;;;;;4.67;100.00;95585.53;5104206;28;20039;-68
2021/11/17 05:27:54;;;;;;;18.08;7.53;;;;;;;4.68;100.00;95587.16;5110555;27;20039;-68
2021/11/17 05:30:39;;;;;;;18.38;7.80;;;;;;;4.73;100.00;95595.16;5105349;28;20889;-69
2021/11/17 05:33:06;;;;;;;17.55;7.82;;;;;;;4.75;100.00;95592.41;5106796;28;20046;-68
2021/11/17 05:35:33;;;;;;;14.85;7.47;;;;;;;4.77;100.00;95596.41;5089905;28;20096;-68
2021/11/17 05:38:11;;;;;;;17.13;8.30;;;;;;;4.81;100.00;95596.03;5107962;28;20044;-68
2021/11/17 05:40:57;;;;;;;20.33;8.45;;;;;;;4.84;100.00;95593.13;5105371;28;20082;-68
2021/11/17 05:43:52;;;;;;;18.10;8.57;;;;;;;4.77;100.00;95586.09;5104531;28;20497;-68
2021/11/17 05:46:34;;;;;;;19.60;8.05;;;;;;;4.84;100.00;95593.13;5102867;28;20039;-68
2021/11/17 05:49:26;;;;;;;18.00;7.63;;;;;;;4.78;100.00;95590.25;5112395;28;20050;-69
2021/11/17 05:52:18;;;;;;;19.40;7.43;;;;;;;4.82;100.00;95600.25;5105020;28;20428;-68
2021/11/17 05:55:12;;;;;;;24.52;10.60;;;;;;;4.84;100.00;95595.69;5102721;28;20035;-68
2021/11/17 05:57:51;;;;;;;30.98;13.00;;;;;;;4.87;100.00;95591.00;5101330;28;20039;-68
2021/11/17 06:00:24;;;;;;;23.92;10.43;;;;;;;4.87;100.00;95600.53;5098128;28;20043;-68
2021/11/17 06:03:06;;;;;;;20.48;9.48;;;;;;;4.90;100.00;95602.75;5101721;28;20048;-68
2021/11/17 06:05:32;;;;;;;15.65;7.85;;;;;;;4.94;100.00;95606.59;5099329;28;20125;-68
2021/11/17 06:07:59;;;;;;;15.38;7.57;;;;;;;4.91;100.00;95604.34;5101663;28;20054;-67
2021/11/17 06:10:32;;;;;;;21.77;10.25;;;;;;;4.88;100.00;95597.78;5102088;28;20044;-68
2021/11/17 06:13:01;;;;;;;20.95;10.27;;;;;;;4.89;100.00;95603.72;5101380;28;20501;-68
2021/11/17 06:15:29;;;;;;;20.38;9.77;;;;;;;4.94;100.00;95611.75;5099550;28;20035;-68
2021/11/17 06:17:57;;;;;;;21.10;9.50;;;;;;;4.91;100.00;95609.50;5079859;28;20047;-68
2021/11/17 06:20:24;;;;;;;24.13;10.25;;;;;;;4.98;100.00;95618.94;5101341;28;20048;-68
2021/11/17 06:22:56;;;;;;;28.02;12.23;;;;;;;5.01;100.00;95617.81;5098872;28;20394;-68
2021/11/17 06:25:25;;;;;;;26.58;11.98;;;;;;;5.04;100.00;95612.31;5084156;28;20032;-67
2021/11/17 06:28:03;;;;;;;21.15;10.38;;;;;;;4.95;100.00;95618.50;5101843;28;20425;-68
2021/11/17 06:30:41;;;;;;;27.17;12.85;;;;;;;5.00;100.00;95621.34;5101462;28;20047;-69
2021/11/17 06:33:10;;;;;;;28.85;13.18;;;;;;;5.03;100.00;95621.00;5094264;28;20070;-69
2021/11/17 06:35:39;;;;;;;29.73;14.02;;;;;;;5.02;100.00;95624.56;5104967;27;20077;-68
2021/11/17 06:38:08;;;;;;;26.63;11.23;;;;;;;5.01;100.00;95622.97;5108975;27;20623;-68
2021/11/17 06:40:38;;;;;;;24.38;11.35;;;;;;;5.09;100.00;95629.84;5108186;27;20055;-68
2021/11/17 06:43:06;;;;;;;31.52;15.60;;;;;;;5.09;100.00;95625.47;5108931;27;20473;-68
2021/11/17 06:45:40;;;;;;;29.70;16.65;;;;;;;5.06;100.00;95625.84;5105635;27;20040;-68
2021/11/17 06:48:08;;;;;;;29.50;14.25;;;;;;;5.05;100.00;95619.06;5090156;27;20043;-68
2021/11/17 06:50:37;;;;;;;27.17;14.30;;;;;;;5.17;100.00;95627.97;5107196;27;20050;-69
2021/11/17 06:53:04;;;;;;;21.63;11.32;;;;;;;5.19;100.00;95634.75;5103664;28;20470;-68
2021/11/17 06:55:31;;;;;;;21.60;11.88;;;;;;;5.11;100.00;95627.88;5106474;27;20082;-68
2021/11/17 06:57:58;;;;;;;24.00;12.43;;;;;;;5.14;100.00;95633.47;5110554;27;20039;-68
2021/11/17 07:00:29;;;;;;;20.88;10.70;;;;;;;5.13;100.00;95636.25;5106775;27;20484;-68
2021/11/17 07:02:57;;;;;;;27.83;12.20;;;;;;;5.21;100.00;95635.38;5092290;28;20031;-68
2021/11/17 07:05:24;;;;;;;24.00;12.48;;;;;;;5.08;100.00;95623.88;5105308;28;20120;-68
2021/11/17 07:07:54;;;;;;;24.85;13.00;;;;;;;5.18;100.00;95633.94;5109561;27;20044;-68
2021/11/17 07:10:24;;;;;;;23.38;11.52;;;;;;;5.05;100.00;95619.06;5109610;27;20040;-68
2021/11/17 07:12:53;;;;;;;20.13;10.00;;;;;;;5.18;100.00;95633.94;5093655;27;20043;-68
2021/11/17 07:15:21;;;;;;;12.98;7.10;;;;;;;5.15;100.00;95635.09;5105842;28;20048;-68
2021/11/17 07:17:49;;;;;;;20.27;10.15;;;;;;;5.26;100.00;95641.59;5106176;28;20033;-68
2021/11/17 07:20:16;;;;;;;16.85;8.65;;;;;;;5.29;100.00;95640.44;5111414;27;20047;-67
2021/11/17 07:22:44;;;;;;;15.40;8.38;;;;;;;5.35;100.00;95640.53;5104850;28;20044;-68
2021/11/17 07:25:14;;;;;;;19.38;9.20;;;;;;;5.38;100.00;95649.69;5087642;28;20040;-68
2021/11/17 07:27:42;;;;;;;18.05;9.88;;;;;;;5.37;100.00;95642.94;5106753;27;20047;-68
2021/11/17 07:30:11;;;;;;;16.13;8.90;;;;;;;5.32;100.00;95634.94;5102876;28;20093;-68
2021/11/17 07:32:39;;;;;;;11.20;7.35;;;;;;;5.31;100.00;95638.47;5105656;27;20043;-68
2021/11/17 07:35:07;;;;;;;21.73;10.88;;;;;;;5.28;100.00;95639.66;5110644;27;20509;-68
2021/11/17 07:37:34;;;;;;;15.00;8.20;;;;;;;5.34;100.00;95643.28;5108305;27;20039;-68
2021/11/17 07:40:01;;;;;;;18.05;10.00;;;;;;;5.31;100.00;95649.63;5105666;27;20055;-67
2021/11/17 07:42:28;;;;;;;18.60;9.10;;;;;;;5.23;100.00;95646.31;5085244;28;20417;-68
2021/11/17 07:44:54;;;;;;;22.70;11.60;;;;;;;5.40;100.00;95655.50;5107530;27;20305;-68
2021/11/17 07:47:21;;;;;;;16.38;9.05;;;;;;;5.34;100.00;95640.72;5107530;27;20051;-67
2021/11/17 07:49:48;;;;;;;20.05;10.63;;;;;;;5.32;100.00;95650.44;5101569;27;20055;-68
2021/11/17 07:52:15;;;;;;;23.65;11.75;;;;;;;5.30;100.00;95652.38;5103648;27;20048;-67
2021/11/17 07:54:42;;;;;;;22.88;11.35;;;;;;;5.19;100.00;95647.66;5105868;27;20067;-68
2021/11/17 07:57:09;;;;;;;21.45;10.38;;;;;;;5.31;100.00;95659.13;5102965;28;20043;-67
2021/11/17 07:59:37;;;;;;;20.42;11.10;;;;;;;5.35;100.00;95655.25;5103229;27;20058;-68
2021/11/17 08:02:08;;;;;;;21.48;10.85;;;;;;;5.40;100.00;95652.91;5106481;27;20048;-69
2021/11/17 08:04:38;;;;;;;17.50;8.75;;;;;;;5.42;100.00;95650.97;5103884;27;20606;-68
2021/11/17 08:07:10;;;;;;;17.25;9.05;;;;;;;5.33;100.00;95632.16;5111751;27;20050;-68
2021/11/17 08:09:37;;;;;;;15.90;9.52;;;;;;;5.54;100.00;95653.91;5115107;27;20035;-67
2021/11/17 08:12:06;;;;;;;17.90;9.57;;;;;;;5.55;100.00;95648.56;5107229;27;20040;-68
2021/11/17 08:14:33;;;;;;;17.38;9.05;;;;;;;5.52;100.00;95653.28;5105999;27;20130;-67
2021/11/17 08:17:01;;;;;;;19.52;10.25;;;;;;;5.51;100.00;95655.06;5095074;27;20039;-67
2021/11/17 08:19:28;;;;;;;14.48;7.95;;;;;;;5.47;100.00;95658.16;5112751;27;20046;-67
2021/11/17 08:21:55;;;;;;;15.98;8.95;;;;;;;5.50;100.00;95663.00;5107537;27;20050;-69
2021/11/17 08:24:22;;;;;;;18.35;9.23;;;;;;;5.61;100.00;95664.31;5114960;27;20047;-66
2021/11/17 08:26:50;;;;;;;15.88;9.50;;;;;;;5.61;100.00;95664.31;5110257;27;20051;-68
2021/11/17 08:29:16;;;;;;;20.92;9.55;;;;;;;5.60;100.00;95662.72;5117727;27;20527;-67
2021/11/17 08:31:43;;;;;;;17.17;9.10;;;;;;;5.58;100.00;95664.69;5107813;27;20059;-67
2021/11/17 08:34:10;;;;;;;19.33;10.05;;;;;;;5.66;100.00;95662.00;5107518;27;20047;-68
2021/11/17 08:36:37;;;;;;;19.85;9.93;;;;;;;5.67;100.00;95661.84;5110042;27;20493;-68
2021/11/17 08:39:05;;;;;;;22.17;10.15;;;;;;;5.69;100.00;95656.47;5111864;27;20040;-68
2021/11/17 08:41:33;;;;;;;18.95;9.57;;;;;;;5.76;100.00;95662.50;5114996;27;20040;-67
2021/11/17 08:44:00;;;;;;;14.43;8.32;;;;;;;5.78;100.00;95652.00;5092535;28;20056;-67
2021/11/17 08:46:27;;;;;;;14.32;7.30;;;;;;;5.78;100.00;95670.91;5108932;27;21959;-67
2021/11/17 08:48:56;;;;;;;15.63;8.18;;;;;;;5.81;100.00;95662.78;5110548;27;20043;-67
2021/11/17 08:51:29;;;;;;;48.33;17.40;;;;;;;5.84;100.00;95675.34;5115691;27;20397;-67
2021/11/17 08:53:59;;;;;;;34.05;14.68;;;;;;;5.75;100.00;95658.34;5110454;27;20439;-67
2021/11/17 08:56:28;;;;;;;21.83;11.60;;;;;;;5.79;100.00;95667.34;5108577;27;20104;-67
2021/11/17 08:58:56;;;;;;;27.80;12.50;;;;;;;5.80;100.00;95665.53;5117298;27;20055;-67
2021/11/17 09:01:22;;;;;;;32.65;13.32;;;;;;;5.90;100.00;95664.28;5111303;27;20112;-68
2021/11/17 09:03:49;;;;;;;34.03;12.73;;;;;;;5.92;100.00;95657.16;5115019;27;20061;-67
2021/11/17 09:06:17;;;;;;;37.63;15.48;;;;;;;6.00;100.00;95658.06;5108210;27;20039;-67
2021/11/17 09:08:44;;;;;;;36.83;14.38;;;;;;;6.04;100.00;95659.31;5111950;27;20031;-67
2021/11/17 09:11:16;;;;;;;24.85;10.70;;;;;;;6.13;100.00;95663.38;5114787;27;20035;-67
2021/11/17 09:13:44;;;;;;;33.00;14.18;;;;;;;6.06;100.00;95667.69;5107467;28;20101;-67
2021/11/17 09:16:13;;;;;;;52.17;17.17;;;;;;;6.09;100.00;95646.63;5107543;27;20068;-68
2021/11/17 09:28:30;;;;;;;31.05;12.85;;;;;;;5.98;100.00;95657.44;5103194;27;20138;-67
2021/11/17 09:30:57;;;;;;;33.30;14.15;;;;;;;5.92;100.00;95652.00;5122935;27;20044;-67
2021/11/17 09:33:28;;;;;;;35.28;15.00;;;;;;;6.13;100.00;95647.88;5124829;27;20057;-68
2021/11/17 09:35:56;;;;;;;27.30;14.27;;;;;;;6.14;100.00;95646.91;5130604;27;20050;-68
2021/11/17 09:38:23;;;;;;;24.55;13.52;;;;;;;6.35;100.00;95653.06;5129723;27;20036;-68
2021/11/17 09:40:57;;;;;;;18.33;10.07;;;;;;;6.33;100.00;95637.72;5129236;27;20531;-68
2021/11/17 09:43:28;;;;;;;15.93;9.27;;;;;;;6.42;100.00;95635.81;5102726;27;20051;-66
2021/11/17 09:45:56;;;;;;;12.20;6.55;;;;;;;6.50;100.00;95631.31;5124740;27;20055;-67
2021/11/17 09:48:28;;;;;;;10.48;6.60;;;;;;;6.56;99.47;95626.41;5128387;27;20043;-67
2021/11/17 09:51:05;;;;;;;8.90;5.93;;;;;;;6.59;98.35;95621.66;5119674;27;20039;-67
2021/11/17 09:54:19;;;;;;;13.38;6.55;;;;;;;6.79;98.01;95621.00;5120956;27;20042;-67
2021/11/17 09:57:00;;;;;;;12.30;7.15;;;;;;;6.99;100.00;95605.63;5120314;27;20063;-67
2021/11/17 09:59:37;;;;;;;11.98;7.10;;;;;;;7.10;99.88;95591.34;5102393;27;20443;-67
2021/11/17 10:02:20;;;;;;;11.70;6.78;;;;;;;7.38;99.21;95605.06;5123457;27;20090;-67
2021/11/17 10:05:13;;;;;;;11.95;6.00;;;;;;;7.43;98.16;95601.88;5122761;27;20527;-67
2021/11/17 10:11:32;;;;;;;10.38;6.53;;;;;;;7.68;94.66;95588.44;5089209;27;20061;-67
2021/11/17 10:14:08;;;;;;;8.93;5.22;;;;;;;7.80;92.61;95566.94;5111223;27;20043;-67
2021/11/17 10:16:36;;;;;;;12.48;5.70;;;;;;;7.90;93.00;95565.75;5126550;27;20039;-67
2021/11/17 10:19:27;;;;;;;11.73;6.30;;;;;;;7.90;93.23;95570.94;5118514;27;20032;-67
2021/11/17 10:22:00;;;;;;;8.45;5.45;;;;;;;8.08;92.25;95562.59;5125854;27;20492;-67
2021/11/17 10:24:48;;;;;;;8.77;5.43;;;;;;;7.89;92.58;95564.97;5121008;27;20035;-68
2021/11/17 10:27:23;;;;;;;11.63;5.72;;;;;;;8.02;91.43;95559.00;5120845;27;20046;-67
2021/11/17 10:30:15;;;;;;;12.80;5.80;;;;;;;8.24;92.41;95557.81;5125686;27;20704;-68
2021/11/17 10:33:03;;;;;;;7.80;5.03;;;;;;;8.17;90.49;95562.22;5119436;27;20047;-68
2021/11/17 10:35:39;;;;;;;10.57;6.43;;;;;;;8.17;89.30;95562.22;5126936;27;20043;-67
2021/11/17 10:38:14;;;;;;;9.75;5.90;;;;;;;7.91;88.58;95552.59;5124349;27;20840;-67
2021/11/17 10:40:53;;;;;;;10.85;5.68;;;;;;;7.84;89.84;95549.97;5110070;27;20047;-68
2021/11/17 10:43:37;;;;;;;8.35;5.13;;;;;;;7.81;89.87;95558.16;5106842;27;20264;-67
2021/11/17 10:46:17;;;;;;;11.27;5.60;;;;;;;7.73;89.82;95557.53;5109811;27;20039;-67
2021/11/17 10:48:54;;;;;;;9.35;5.30;;;;;;;7.63;88.92;95550.13;5115243;27;20054;-67
2021/11/17 10:51:33;;;;;;;7.18;4.72;;;;;;;7.60;89.51;95546.13;5107474;27;20046;-67
2021/11/17 10:54:09;;;;;;;6.75;4.18;;;;;;;7.65;86.41;95558.50;5107632;27;20050;-67
2021/11/17 10:56:41;;;;;;;6.40;4.05;;;;;;;7.55;88.78;95558.06;5107408;27;20044;-67
2021/11/17 10:59:07;;;;;;;11.10;6.05;;;;;;;7.49;88.13;95538.09;5105319;27;20050;-67
2021/11/17 11:01:41;;;;;;;9.23;5.40;;;;;;;7.47;90.15;95541.69;5105642;27;20032;-67
2021/11/17 11:04:22;;;;;;;7.60;4.93;;;;;;;7.45;88.29;95533.31;5106719;27;20039;-67
2021/11/17 11:06:54;;;;;;;11.10;6.05;;;;;;;7.57;87.42;95530.16;5103913;27;20044;-67
2021/11/17 11:09:37;;;;;;;13.77;5.93;;;;;;;7.66;87.69;95539.38;5105899;27;20082;-67
2021/11/17 11:12:05;;;;;;;11.20;6.28;;;;;;;7.47;88.12;95520.97;5109023;27;20062;-67
2021/11/17 11:14:46;;;;;;;10.75;6.15;;;;;;;7.45;88.81;95507.41;5116225;27;20047;-67
2021/11/17 11:17:36;;;;;;;10.15;6.30;;;;;;;7.79;87.32;95536.78;5107337;27;20046;-67
2021/11/17 11:20:16;;;;;;;9.38;5.10;;;;;;;7.76;83.59;95532.03;5104920;27;20050;-68
2021/11/17 11:23:11;;;;;;;10.93;6.45;;;;;;;7.88;86.53;95527.03;5108687;27;20043;-67
2021/11/17 11:25:58;;;;;;;13.82;6.35;;;;;;;7.77;84.35;95536.19;5109848;27;20039;-67
2021/11/17 11:28:42;;;;;;;11.70;7.75;;;;;;;7.81;87.30;95527.06;5087516;27;20040;-66
2021/11/17 11:31:11;;;;;;;8.93;5.43;;;;;;;7.73;86.11;95522.03;5104794;27;20471;-67
2021/11/17 11:33:49;;;;;;;12.13;7.85;;;;;;;7.78;86.28;95517.06;5102559;27;20044;-68
2021/11/17 11:36:16;;;;;;;10.85;6.97;;;;;;;7.84;85.82;95524.03;5104652;27;20504;-67
2021/11/17 11:38:57;;;;;;;9.15;6.07;;;;;;;7.77;85.18;95523.22;5103656;27;20044;-67
2021/11/17 11:41:39;;;;;;;10.30;6.35;;;;;;;7.77;87.48;95520.63;5105302;27;20982;-67
2021/11/17 11:44:23;;;;;;;9.25;5.90;;;;;;;7.68;85.09;95514.03;5107438;27;22038;-67
2021/11/17 11:46:56;;;;;;;9.05;5.93;;;;;;;7.61;86.24;95511.41;5108797;27;20514;-67
2021/11/17 11:49:46;;;;;;;8.05;5.60;;;;;;;7.57;86.35;95515.41;5104736;27;20504;-67
2021/11/17 11:52:27;;;;;;;10.68;6.45;;;;;;;7.65;85.83;95511.81;5105749;27;20523;-68
2021/11/17 11:54:54;;;;;;;9.63;6.18;;;;;;;7.40;84.88;95504.59;5105939;27;20123;-67
2021/11/17 11:57:39;;;;;;;8.90;5.53;;;;;;;7.59;86.00;95510.03;5106331;27;20050;-67
2021/11/17 12:00:26;;;;;;;10.35;6.25;;;;;;;7.53;85.68;95506.41;5102526;28;20050;-67
2021/11/17 12:03:00;;;;;;;9.25;5.75;;;;;;;7.36;86.91;95503.34;5101372;28;20027;-67
2021/11/17 12:06:00;;;;;;;10.95;6.20;;;;;;;7.20;87.44;95508.88;5106799;27;20048;-68
2021/11/17 12:08:50;;;;;;;10.27;6.40;;;;;;;7.18;88.59;95505.69;5085308;27;20036;-67
2021/11/17 12:11:26;;;;;;;11.25;5.85;;;;;;;7.16;88.91;95503.28;5101803;27;20535;-67
2021/11/17 12:14:05;;;;;;;10.77;5.80;;;;;;;7.00;88.93;95501.81;5104457;27;20063;-67
2021/11/17 12:16:44;;;;;;;11.38;5.93;;;;;;;7.11;88.27;95510.03;5109703;27;20039;-67
2021/11/17 12:19:30;;;;;;;11.07;6.35;;;;;;;7.12;89.58;95501.28;5086494;27;20047;-67
2021/11/17 12:22:03;;;;;;;9.75;5.63;;;;;;;7.17;88.96;95501.50;5111236;27;20036;-66
2021/11/17 12:24:39;;;;;;;9.20;5.63;;;;;;;7.17;88.86;95501.50;5112640;27;20061;-66
2021/11/17 12:27:15;;;;;;;11.45;6.47;;;;;;;7.19;88.40;95491.75;5105023;27;20503;-66
2021/11/17 12:29:54;;;;;;;10.43;5.88;;;;;;;7.24;87.66;95484.19;5109584;27;20046;-66
2021/11/17 12:32:50;;;;;;;8.57;4.53;;;;;;;7.20;88.31;95490.75;5110667;27;20401;-67
2021/11/17 12:35:40;;;;;;;9.35;5.55;;;;;;;7.23;87.28;95482.59;5107664;27;20066;-67
2021/11/17 12:38:13;;;;;;;10.05;4.50;;;;;;;7.05;85.43;95470.94;5113928;27;20443;-66
2021/11/17 12:40:42;;;;;;;7.73;4.67;;;;;;;7.11;85.80;95481.53;5110977;27;20047;-67
2021/11/17 12:43:25;;;;;;;10.18;5.55;;;;;;;7.22;86.16;95478.38;5107801;27;20445;-67
2021/11/17 12:46:22;;;;;;;8.93;4.88;;;;;;;7.19;84.80;95481.38;5112044;27;20035;-67
2021/11/17 12:49:14;;;;;;;9.65;5.43;;;;;;;7.14;84.71;95479.38;5109366;27;20462;-67
2021/11/17 12:51:53;;;;;;;10.23;5.65;;;;;;;7.13;85.49;95482.97;5090391;28;20066;-67
2021/11/17 12:54:30;;;;;;;9.57;5.22;;;;;;;7.20;85.09;95482.97;5102628;27;20043;-68
2021/11/17 12:57:00;;;;;;;9.57;6.15;;;;;;;7.11;85.08;95486.72;5105969;27;20042;-69
2021/11/17 12:59:53;;;;;;;9.68;5.53;;;;;;;7.21;86.27;95479.41;5108654;27;20039;-68
2021/11/17 13:02:26;;;;;;;9.13;5.88;;;;;;;7.29;86.41;95486.97;5111696;27;20443;-67
2021/11/17 13:05:14;;;;;;;8.00;4.90;;;;;;;7.30;85.51;95488.59;5094875;28;20476;-67
2021/11/17 13:07:58;;;;;;;9.27;4.72;;;;;;;7.31;85.42;95490.22;5107821;27;20047;-67
2021/11/17 13:10:47;;;;;;;6.75;4.53;;;;;;;7.28;85.40;95490.59;5108228;27;20130;-67
2021/11/17 13:13:37;;;;;;;6.07;4.28;;;;;;;7.44;84.87;95494.63;5113133;27;20046;-66
2021/11/17 13:16:11;;;;;;;8.02;5.15;;;;;;;7.41;83.39;95495.81;5105434;27;20043;-66
2021/11/17 13:18:43;;;;;;;8.73;5.25;;;;;;;7.32;83.92;95491.78;5105833;27;20096;-66
2021/11/17 13:21:23;;;;;;;8.18;5.18;;;;;;;7.33;84.46;95498.59;5101275;28;20047;-68
2021/11/17 13:23:59;;;;;;;7.53;4.70;;;;;;;7.42;84.78;95491.44;5097255;27;20050;-67
2021/11/17 13:26:39;;;;;;;7.65;4.63;;;;;;;7.28;83.89;95490.59;5099793;28;20062;-67
2021/11/17 13:29:29;;;;;;;7.65;4.78;;;;;;;7.21;83.70;95494.94;5096949;28;20051;-67
2021/11/17 13:32:02;;;;;;;8.00;4.38;;;;;;;7.15;85.69;95500.88;5098803;28;20043;-67
2021/11/17 13:34:49;;;;;;;7.03;4.10;;;;;;;7.04;85.30;95478.91;5096809;28;20123;-67
2021/11/17 13:37:37;;;;;;;10.93;5.45;;;;;;;6.95;85.28;95488.66;5110588;28;20461;-67
2021/11/17 13:40:04;;;;;;;21.02;8.68;;;;;;;6.86;85.92;95480.25;5112783;28;20503;-67
2021/11/17 13:42:31;;;;;;;14.05;6.35;;;;;;;6.79;86.16;95461.28;5099763;28;20036;-67
2021/11/17 13:45:00;;;;;;;18.73;7.32;;;;;;;6.76;85.56;95476.41;5113299;28;20552;-67
2021/11/17 13:47:30;;;;;;;19.48;10.27;;;;;;;6.68;86.20;95470.38;5111220;28;20039;-67
2021/11/17 13:49:58;;;;;;;15.02;8.30;;;;;;;6.79;86.00;95476.81;5107460;28;20046;-67
2021/11/17 13:52:32;;;;;;;16.48;9.73;;;;;;;6.64;86.08;95463.19;5098077;28;20443;-67
2021/11/17 13:55:00;;;;;;;10.88;6.55;;;;;;;6.51;86.79;95463.91;5101811;28;20042;-67
2021/11/17 13:57:28;;;;;;;15.35;8.18;;;;;;;6.43;87.88;95464.06;5099802;28;20753;-68
2021/11/17 13:59:56;;;;;;;27.45;9.30;;;;;;;6.45;87.42;95475.03;5087953;28;20504;-67
2021/11/17 14:02:23;;;;;;;17.70;7.97;;;;;;;6.46;88.24;95484.38;5112155;28;20042;-67
2021/11/17 14:04:50;;;;;;;11.23;7.35;;;;;;;6.42;88.84;95470.22;5097931;28;20043;-67
2021/11/17 14:07:20;;;;;;;12.25;7.30;;;;;;;6.49;89.50;95473.66;5104553;28;20590;-67
2021/11/17 14:09:47;;;;;;;43.67;24.15;;;;;;;6.28;89.02;95458.97;5102626;28;20142;-68
2021/11/17 14:12:14;;;;;;;13.95;8.18;;;;;;;6.20;88.91;95462.50;5103005;28;20596;-68
2021/11/17 14:14:42;;;;;;;16.80;9.57;;;;;;;6.19;89.31;95478.19;5104789;27;20452;-68
2021/11/17 14:17:09;;;;;;;11.82;6.63;;;;;;;6.22;89.47;95476.03;5109850;27;20062;-68
2021/11/17 14:19:37;;;;;;;13.77;8.48;;;;;;;6.09;90.30;95475.94;5103032;27;20093;-67
2021/11/17 14:22:05;;;;;;;15.00;8.82;;;;;;;6.22;90.69;95481.22;5105705;27;20042;-67
2021/11/17 14:24:31;;;;;;;11.02;5.90;;;;;;;6.25;90.31;95480.84;5102405;27;20050;-67
2021/11/17 14:27:00;;;;;;;12.85;7.57;;;;;;;6.27;90.25;95478.88;5097696;27;20055;-68
2021/11/17 14:29:32;;;;;;;14.18;8.57;;;;;;;6.07;90.53;95477.91;5110764;27;20054;-67
2021/11/17 14:32:13;;;;;;;9.80;6.22;;;;;;;6.00;90.81;95474.47;5102880;27;20047;-68
2021/11/17 14:34:40;;;;;;;8.80;4.68;;;;;;;6.01;92.06;95484.63;5105043;27;20054;-69
2021/11/17 14:37:09;;;;;;;9.27;5.28;;;;;;;5.96;92.44;95481.00;5111194;27;20040;-66
2021/11/17 14:39:39;;;;;;;12.15;5.53;;;;;;;5.94;93.37;95484.53;5105259;27;20424;-67
2021/11/17 14:42:07;;;;;;;8.57;4.80;;;;;;;5.84;94.77;95468.53;5104459;27;20039;-67
2021/11/17 14:44:35;;;;;;;10.07;5.38;;;;;;;5.87;92.81;95482.88;5102123;28;20040;-66
2021/11/17 14:47:03;;;;;;;10.32;5.63;;;;;;;5.74;94.12;95462.88;5115001;27;20261;-67
2021/11/17 14:49:31;;;;;;;13.82;7.80;;;;;;;5.55;93.16;95459.91;5115341;27;20515;-67
2021/11/17 14:52:01;;;;;;;12.43;5.57;;;;;;;5.67;94.21;95462.81;5111752;27;20112;-67